Time;durP1;ratioP1;P1;durP2;ratioP2;P2;SDS_P1;SDS_P2;PMS_P1;PMS_P2;Temp;Humidity;BMP_temperature;BMP_pressure;BME280_temperature;BME280_humidity;BME280_pressure;Samples;Min_cycle;Max_cycle;Signal;HPM_P1;HPM_P2
2021/10/16 05:09:16;;;;;;;48.47;28.45;;;;;;;;;;5249709;23;20059;-59
2021/10/16 05:11:42;;;;;;;44.92;26.88;;;;;;;;;;4971975;28;20093;-62
2021/10/16 05:14:09;;;;;;;50.08;28.45;;;;;;;;;;4954752;28;20465;-60
2021/10/16 05:16:35;;;;;;;48.42;28.27;;;;;;;;;;4967213;28;20063;-59
2021/10/16 05:19:01;;;;;;;44.63;26.60;;;;;;;;;;4971662;28;20493;-59
2021/10/16 05:21:27;;;;;;;43.08;26.30;;;;;;;;;;4971640;28;20041;-60
2021/10/16 05:23:53;;;;;;;45.92;27.17;;;;;;;;;;4971196;28;20033;-58
2021/10/16 05:26:19;;;;;;;40.70;24.92;;;;;;;;;;4954092;28;20035;-60
2021/10/16 05:28:45;;;;;;;41.22;25.00;;;;;;;;;;4971574;28;20042;-61
2021/10/16 05:31:11;;;;;;;38.50;24.92;;;;;;;;;;4971713;28;20062;-59
2021/10/16 05:33:37;;;;;;;40.13;24.77;;;;;;;;;;4971886;28;20586;-59
2021/10/16 05:36:04;;;;;;;37.80;23.52;;;;;;;;;;4975149;28;20100;-58
2021/10/16 05:38:30;;;;;;;39.35;23.30;;;;;;;;;;4975155;28;20037;-58
2021/10/16 05:40:56;;;;;;;43.00;25.40;;;;;;;;;;4975394;28;20114;-60
2021/10/16 05:43:22;;;;;;;43.53;25.38;;;;;;;;;;4975545;28;20070;-60
2021/10/16 05:45:48;;;;;;;41.55;24.15;;;;;;;;;;4974904;28;20442;-58
2021/10/16 05:48:14;;;;;;;39.10;23.63;;;;;;;;;;4974866;28;20027;-60
2021/10/16 05:50:40;;;;;;;43.35;24.10;;;;;;;;;;4974584;28;20475;-60
2021/10/16 05:53:06;;;;;;;40.85;25.15;;;;;;;;;;4974750;28;20489;-59
2021/10/16 05:55:33;;;;;;;42.53;25.17;;;;;;;;;;4974931;28;20450;-59
2021/10/16 05:57:59;;;;;;;39.05;24.65;;;;;;;;;;4974842;28;20019;-58
2021/10/16 06:00:25;;;;;;;42.72;24.85;;;;;;;;;;4974745;28;20035;-59
2021/10/16 06:02:51;;;;;;;41.13;23.70;;;;;;;;;;4974844;28;20109;-61
2021/10/16 06:05:18;;;;;;;40.47;24.65;;;;;;;;;;4973902;28;20015;-59
2021/10/16 06:07:44;;;;;;;40.67;24.80;;;;;;;;;;4974366;28;20030;-59
2021/10/16 06:10:10;;;;;;;39.60;23.67;;;;;;;;;;4988644;28;20387;-59
2021/10/16 06:12:36;;;;;;;35.08;22.17;;;;;;;;;;4992421;28;20481;-60
2021/10/16 06:15:02;;;;;;;39.45;24.73;;;;;;;;;;4994181;28;20077;-60
2021/10/16 06:17:29;;;;;;;34.08;21.90;;;;;;;;;;4993704;28;20150;-60
2021/10/16 06:19:55;;;;;;;34.58;21.60;;;;;;;;;;4994141;28;20026;-60
2021/10/16 06:22:21;;;;;;;39.72;25.58;;;;;;;;;;4993536;28;20077;-60
2021/10/16 06:24:47;;;;;;;37.10;23.02;;;;;;;;;;4993819;28;20033;-60
2021/10/16 06:27:13;;;;;;;37.83;22.90;;;;;;;;;;4994153;28;20030;-59
2021/10/16 06:29:39;;;;;;;35.00;21.67;;;;;;;;;;4993579;28;20034;-60
2021/10/16 06:32:05;;;;;;;38.65;22.08;;;;;;;;;;4993628;28;20022;-60
2021/10/16 06:34:31;;;;;;;35.30;22.42;;;;;;;;;;4993692;28;20026;-60
2021/10/16 06:36:58;;;;;;;36.78;22.45;;;;;;;;;;4993854;28;20504;-59
2021/10/16 06:39:24;;;;;;;40.03;23.60;;;;;;;;;;4993097;28;20073;-59
2021/10/16 06:41:50;;;;;;;36.25;21.90;;;;;;;;;;4993423;28;20033;-58
2021/10/16 06:44:16;;;;;;;35.28;21.98;;;;;;;;;;4993467;28;20124;-60
2021/10/16 06:46:42;;;;;;;36.33;23.55;;;;;;;;;;4993027;28;20074;-61
2021/10/16 06:49:08;;;;;;;33.72;21.23;;;;;;;;;;4992668;28;20080;-61
2021/10/16 06:51:35;;;;;;;35.25;20.60;;;;;;;;;;4992996;28;20027;-59
2021/10/16 06:54:02;;;;;;;39.00;23.17;;;;;;;;;;4993267;28;20034;-60
2021/10/16 06:56:28;;;;;;;36.90;22.90;;;;;;;;;;4993300;28;20038;-57
2021/10/16 06:58:54;;;;;;;38.17;22.83;;;;;;;;;;4992595;28;20031;-62
2021/10/16 07:01:21;;;;;;;38.80;22.52;;;;;;;;;;4992623;28;20134;-61
2021/10/16 07:03:47;;;;;;;35.42;21.58;;;;;;;;;;4993028;28;20109;-61
2021/10/16 07:06:13;;;;;;;34.80;21.02;;;;;;;;;;4992899;28;20088;-61
2021/10/16 07:08:39;;;;;;;36.28;21.95;;;;;;;;;;4992143;28;20042;-61
2021/10/16 07:11:05;;;;;;;33.92;21.23;;;;;;;;;;4992446;28;20026;-59
2021/10/16 07:13:31;;;;;;;37.53;21.45;;;;;;;;;;4992525;28;20022;-59
2021/10/16 07:15:58;;;;;;;36.78;21.38;;;;;;;;;;4992543;28;20105;-59
2021/10/16 07:18:25;;;;;;;34.25;20.65;;;;;;;;;;4990908;28;20553;-59
2021/10/16 07:20:51;;;;;;;36.47;22.33;;;;;;;;;;4992222;28;20034;-60
2021/10/16 07:23:26;;;;;;;38.72;23.15;;;;;;;;;;4992140;28;20034;-62
2021/10/16 07:25:52;;;;;;;34.00;20.80;;;;;;;;;;4989204;28;20482;-61
2021/10/16 07:28:18;;;;;;;37.40;22.25;;;;;;;;;;4991393;28;20026;-62
2021/10/16 07:30:44;;;;;;;32.97;21.00;;;;;;;;;;4990286;28;20034;-58
2021/10/16 07:33:13;;;;;;;36.45;21.38;;;;;;;;;;4991190;28;20034;-59
2021/10/16 07:35:39;;;;;;;34.35;21.67;;;;;;;;;;4990656;28;20600;-60
2021/10/16 07:38:05;;;;;;;34.42;21.60;;;;;;;;;;4990226;28;20592;-59
2021/10/16 07:40:31;;;;;;;34.22;21.52;;;;;;;;;;4990635;28;20058;-59
2021/10/16 07:42:57;;;;;;;35.35;21.58;;;;;;;;;;4990427;28;20038;-61
2021/10/16 07:45:24;;;;;;;37.38;22.58;;;;;;;;;;4990497;28;20496;-60
2021/10/16 07:47:51;;;;;;;36.33;22.08;;;;;;;;;;4973079;28;20481;-60
2021/10/16 07:50:17;;;;;;;33.90;20.10;;;;;;;;;;4990669;28;20038;-61
2021/10/16 07:52:43;;;;;;;31.92;20.17;;;;;;;;;;4990374;28;20028;-60
2021/10/16 07:55:09;;;;;;;34.08;21.10;;;;;;;;;;4990447;28;20026;-60
2021/10/16 07:57:35;;;;;;;39.28;22.38;;;;;;;;;;4989645;28;20038;-61
2021/10/16 08:00:01;;;;;;;32.70;21.05;;;;;;;;;;4987529;28;20744;-62
2021/10/16 08:02:27;;;;;;;31.33;20.20;;;;;;;;;;4990174;28;20030;-60
2021/10/16 08:04:54;;;;;;;31.83;19.98;;;;;;;;;;4990275;28;20029;-60
2021/10/16 08:07:20;;;;;;;32.67;20.40;;;;;;;;;;4990320;28;20110;-62
2021/10/16 08:09:46;;;;;;;34.72;19.98;;;;;;;;;;4990143;28;20050;-61
2021/10/16 08:12:12;;;;;;;33.97;20.63;;;;;;;;;;4990462;28;20026;-61
2021/10/16 08:14:38;;;;;;;33.55;19.95;;;;;;;;;;4989726;28;20027;-61
2021/10/16 08:17:04;;;;;;;35.35;19.60;;;;;;;;;;4990413;28;20023;-63
2021/10/16 08:19:30;;;;;;;30.70;18.42;;;;;;;;;;4990409;28;20078;-61
2021/10/16 08:21:56;;;;;;;29.15;18.20;;;;;;;;;;4989247;28;20035;-62
2021/10/16 08:24:22;;;;;;;28.48;17.95;;;;;;;;;;4989550;28;20097;-62
2021/10/16 08:26:48;;;;;;;27.77;17.83;;;;;;;;;;4988980;28;20038;-62
2021/10/16 08:29:15;;;;;;;28.77;18.58;;;;;;;;;;4992019;28;20030;-61
2021/10/16 08:31:41;;;;;;;30.73;18.83;;;;;;;;;;4991751;28;20030;-60
2021/10/16 08:34:07;;;;;;;29.38;18.35;;;;;;;;;;4989964;28;20382;-62
2021/10/16 08:36:33;;;;;;;28.00;17.90;;;;;;;;;;4990136;28;20027;-61
2021/10/16 08:38:59;;;;;;;29.70;18.80;;;;;;;;;;4989582;28;20489;-61
2021/10/16 08:41:25;;;;;;;27.95;16.85;;;;;;;;;;4972097;28;20389;-61
2021/10/16 08:43:51;;;;;;;28.63;17.92;;;;;;;;;;4990091;28;20101;-59
2021/10/16 08:46:17;;;;;;;28.55;17.35;;;;;;;;;;4987264;28;20092;-61
2021/10/16 08:48:44;;;;;;;28.52;17.20;;;;;;;;;;4989534;28;20138;-61
2021/10/16 08:51:10;;;;;;;26.23;16.15;;;;;;;;;;4989063;28;20053;-58
2021/10/16 08:53:36;;;;;;;24.02;16.80;;;;;;;;;;4990359;28;20457;-61
2021/10/16 08:56:05;;;;;;;26.75;16.23;;;;;;;;;;4991661;28;20035;-61
2021/10/16 08:58:32;;;;;;;28.30;17.50;;;;;;;;;;4990845;28;20506;-60
2021/10/16 09:01:00;;;;;;;26.60;16.40;;;;;;;;;;4990964;28;20034;-59
2021/10/16 09:03:33;;;;;;;24.52;16.17;;;;;;;;;;4996214;28;20470;-59
2021/10/16 09:05:59;;;;;;;29.50;16.67;;;;;;;;;;4993892;28;20033;-61
2021/10/16 09:08:28;;;;;;;26.90;15.95;;;;;;;;;;5001824;28;20042;-62
2021/10/16 09:11:10;;;;;;;26.65;15.93;;;;;;;;;;4995277;28;20467;-62
2021/10/16 09:13:43;;;;;;;29.42;17.05;;;;;;;;;;4996075;28;20023;-62
2021/10/16 09:16:39;;;;;;;27.15;15.98;;;;;;;;;;5014598;28;20038;-62
2021/10/16 09:19:10;;;;;;;26.88;15.65;;;;;;;;;;4915834;29;20047;-61
2021/10/16 09:21:37;;;;;;;26.55;16.92;;;;;;;;;;4916131;29;20040;-63
2021/10/16 09:24:05;;;;;;;27.10;15.77;;;;;;;;;;4916108;29;20055;-63
2021/10/16 09:26:32;;;;;;;29.33;16.98;;;;;;;;;;4916011;29;20028;-63
2021/10/16 09:29:00;;;;;;;30.15;17.83;;;;;;;;;;4900032;29;20453;-61
2021/10/16 09:31:40;;;;;;;24.77;15.32;;;;;;;;;;4915500;29;20503;-62
2021/10/16 09:34:06;;;;;;;27.17;15.68;;;;;;;;;;4915726;29;20040;-62
2021/10/16 09:36:34;;;;;;;29.48;16.25;;;;;;;;;;4915807;29;20036;-61
2021/10/16 09:39:01;;;;;;;26.50;14.93;;;;;;;;;;4915293;29;20040;-62
2021/10/16 09:41:28;;;;;;;27.92;16.25;;;;;;;;;;4915601;29;20079;-63
2021/10/16 09:43:54;;;;;;;26.73;14.50;;;;;;;;;;4916004;29;20070;-62
2021/10/16 09:46:21;;;;;;;22.95;13.93;;;;;;;;;;4899422;29;20142;-61
2021/10/16 09:48:48;;;;;;;21.15;13.38;;;;;;;;;;4914717;29;20120;-66
2021/10/16 09:51:15;;;;;;;22.88;14.25;;;;;;;;;;4915360;29;20417;-63
2021/10/16 09:53:48;;;;;;;30.20;14.85;;;;;;;;;;4914984;29;20040;-61
2021/10/16 09:56:14;;;;;;;33.30;18.63;;;;;;;;;;4996365;28;20041;-63
2021/10/16 09:58:41;;;;;;;32.30;17.42;;;;;;;;;;5014254;28;20022;-63
2021/10/16 10:01:09;;;;;;;30.45;17.38;;;;;;;;;;5013524;28;20029;-63
2021/10/16 10:03:36;;;;;;;28.60;18.00;;;;;;;;;;5014104;28;20124;-61
2021/10/16 10:06:02;;;;;;;28.30;17.20;;;;;;;;;;5013641;28;20108;-62
2021/10/16 10:08:29;;;;;;;22.45;14.85;;;;;;;;;;5013803;28;20401;-62
2021/10/16 10:10:55;;;;;;;22.20;13.77;;;;;;;;;;5013602;28;20061;-61
2021/10/16 10:13:24;;;;;;;29.85;16.75;;;;;;;;;;5013894;28;20022;-61
2021/10/16 10:15:50;;;;;;;16.08;10.45;;;;;;;;;;5013722;28;20022;-61
2021/10/16 10:21:01;;;;;;;27.73;17.70;;;;;;;;;;5013163;28;20037;-62
2021/10/16 10:23:27;;;;;;;25.95;15.68;;;;;;;;;;5012569;28;20045;-61
2021/10/16 10:26:12;;;;;;;21.30;13.63;;;;;;;;;;5012548;28;20117;-62
2021/10/16 10:28:58;;;;;;;20.35;12.07;;;;;;;;;;5013667;28;20065;-61
2021/10/16 10:31:43;;;;;;;18.35;10.90;;;;;;;;;;5013144;28;20026;-61
2021/10/16 10:34:19;;;;;;;19.27;10.90;;;;;;;;;;5013129;28;20520;-62
2021/10/16 10:36:50;;;;;;;21.27;10.73;;;;;;;;;;5013022;28;20057;-62
2021/10/16 10:39:34;;;;;;;19.77;11.68;;;;;;;;;;5013072;28;20033;-63
2021/10/16 10:42:23;;;;;;;13.30;9.13;;;;;;;;;;5013223;28;20445;-62
2021/10/16 10:44:50;;;;;;;17.85;11.18;;;;;;;;;;5013537;28;20104;-62
2021/10/16 10:47:25;;;;;;;16.48;9.98;;;;;;;;;;5013367;28;20034;-61
2021/10/16 10:49:52;;;;;;;19.98;11.68;;;;;;;;;;5012958;28;20034;-60
2021/10/16 10:52:23;;;;;;;16.60;10.80;;;;;;;;;;5013186;28;20436;-60
2021/10/16 10:55:04;;;;;;;15.13;9.98;;;;;;;;;;5013008;28;20441;-59
2021/10/16 10:57:47;;;;;;;18.00;11.50;;;;;;;;;;5011772;28;20073;-61
2021/10/16 11:00:15;;;;;;;17.50;11.45;;;;;;;;;;4996867;28;20059;-63
2021/10/16 11:02:41;;;;;;;20.60;11.63;;;;;;;;;;4992817;28;20046;-62
2021/10/16 11:05:35;;;;;;;17.48;11.15;;;;;;;;;;4993369;28;20036;-62
2021/10/16 11:08:07;;;;;;;19.55;10.63;;;;;;;;;;4996804;28;20038;-62
2021/10/16 11:10:33;;;;;;;17.90;11.50;;;;;;;;;;5011926;28;20057;-66
2021/10/16 11:13:10;;;;;;;20.15;11.55;;;;;;;;;;5003670;28;20030;-62
2021/10/16 11:15:36;;;;;;;19.23;11.52;;;;;;;;;;4992119;28;20490;-61
2021/10/16 11:18:08;;;;;;;20.98;11.43;;;;;;;;;;4991592;28;20522;-65
2021/10/16 11:20:35;;;;;;;18.58;10.30;;;;;;;;;;4992408;28;20504;-65
2021/10/16 11:23:01;;;;;;;17.20;11.45;;;;;;;;;;4992589;28;20046;-62
2021/10/16 11:25:29;;;;;;;12.07;7.53;;;;;;;;;;4992398;28;20092;-63
2021/10/16 11:28:02;;;;;;;18.48;10.95;;;;;;;;;;4992782;28;20060;-61
2021/10/16 11:30:28;;;;;;;19.02;11.00;;;;;;;;;;4992638;28;20370;-62
2021/10/16 11:33:10;;;;;;;20.98;12.40;;;;;;;;;;4992391;28;20101;-64
2021/10/16 11:35:37;;;;;;;24.75;13.18;;;;;;;;;;4992692;28;20033;-67
2021/10/16 11:38:04;;;;;;;18.52;11.82;;;;;;;;;;4991483;28;20040;-62
2021/10/16 11:40:31;;;;;;;19.50;12.80;;;;;;;;;;4991620;28;20089;-62
2021/10/16 11:43:01;;;;;;;21.70;13.27;;;;;;;;;;4992179;28;20088;-61
2021/10/16 11:45:29;;;;;;;26.55;14.57;;;;;;;;;;4991733;28;20364;-62
2021/10/16 11:47:56;;;;;;;22.30;13.25;;;;;;;;;;4992227;28;20103;-63
2021/10/16 11:50:40;;;;;;;19.50;11.70;;;;;;;;;;4992111;28;20035;-62
2021/10/16 11:53:12;;;;;;;18.15;12.40;;;;;;;;;;4992341;28;20478;-64
2021/10/16 11:55:43;;;;;;;20.73;11.93;;;;;;;;;;4992049;28;20031;-61
2021/10/16 11:58:13;;;;;;;22.33;12.23;;;;;;;;;;4992756;28;20034;-61
2021/10/16 12:00:43;;;;;;;22.52;12.30;;;;;;;;;;4992874;28;20097;-61
2021/10/16 12:03:18;;;;;;;21.23;12.32;;;;;;;;;;4992257;28;20030;-61
2021/10/16 12:05:49;;;;;;;21.92;12.75;;;;;;;;;;4992122;28;20437;-60
2021/10/16 12:08:19;;;;;;;17.52;11.48;;;;;;;;;;4991648;28;20494;-60
2021/10/16 12:10:46;;;;;;;17.90;11.18;;;;;;;;;;4991132;28;20081;-60
2021/10/16 12:13:13;;;;;;;19.40;10.55;;;;;;;;;;4991970;28;20031;-60
2021/10/16 12:15:39;;;;;;;18.40;10.85;;;;;;;;;;4991449;28;20125;-60
2021/10/16 12:18:06;;;;;;;18.50;11.32;;;;;;;;;;4991529;28;20034;-61
2021/10/16 12:20:48;;;;;;;18.25;10.77;;;;;;;;;;4991555;28;20030;-63
2021/10/16 12:23:15;;;;;;;18.67;10.98;;;;;;;;;;4991648;28;20046;-61
2021/10/16 12:25:45;;;;;;;15.77;9.85;;;;;;;;;;4991696;28;20360;-61
2021/10/16 12:28:11;;;;;;;17.98;10.30;;;;;;;;;;4991615;28;20069;-62
2021/10/16 12:30:37;;;;;;;16.98;10.02;;;;;;;;;;4991258;28;20500;-60
2021/10/16 12:33:10;;;;;;;17.65;10.25;;;;;;;;;;4994486;28;20077;-61
2021/10/16 12:35:36;;;;;;;16.10;10.05;;;;;;;;;;5003192;28;20033;-62
2021/10/16 12:38:03;;;;;;;16.70;10.40;;;;;;;;;;4998317;28;20034;-62
2021/10/16 12:40:38;;;;;;;15.50;9.35;;;;;;;;;;4991203;28;20045;-64
2021/10/16 12:43:05;;;;;;;18.63;10.50;;;;;;;;;;4991090;28;20459;-62
2021/10/16 12:45:41;;;;;;;16.13;9.23;;;;;;;;;;4991529;28;20029;-62
2021/10/16 12:48:26;;;;;;;14.85;9.18;;;;;;;;;;4991304;28;20109;-62
2021/10/16 12:50:53;;;;;;;15.95;9.63;;;;;;;;;;4991371;28;20030;-62
2021/10/16 12:53:20;;;;;;;16.05;9.18;;;;;;;;;;4991246;28;20050;-61
2021/10/16 12:55:46;;;;;;;16.10;9.65;;;;;;;;;;4991232;28;20105;-61
2021/10/16 12:58:14;;;;;;;13.75;8.57;;;;;;;;;;4991316;28;20050;-61
2021/10/16 13:00:50;;;;;;;13.25;8.13;;;;;;;;;;4991346;28;20034;-62
2021/10/16 13:03:16;;;;;;;14.85;7.53;;;;;;;;;;4991255;28;20038;-62
2021/10/16 13:05:43;;;;;;;14.77;8.70;;;;;;;;;;4991208;28;20039;-60
2021/10/16 13:08:10;;;;;;;16.00;9.05;;;;;;;;;;4990719;28;20040;-63
2021/10/16 13:10:36;;;;;;;15.60;8.90;;;;;;;;;;4990471;28;20054;-61
2021/10/16 13:13:05;;;;;;;15.43;8.82;;;;;;;;;;4991183;28;20060;-62
2021/10/16 13:15:32;;;;;;;15.75;8.82;;;;;;;;;;4991431;28;20114;-61
2021/10/16 13:17:58;;;;;;;13.00;8.32;;;;;;;;;;4991354;28;20022;-62
2021/10/16 13:20:24;;;;;;;13.00;8.15;;;;;;;;;;4991458;28;20101;-62
2021/10/16 13:22:50;;;;;;;12.68;8.43;;;;;;;;;;4990468;28;20088;-61
2021/10/16 13:25:16;;;;;;;16.65;8.90;;;;;;;;;;4991131;28;20022;-62
2021/10/16 13:27:43;;;;;;;13.45;8.05;;;;;;;;;;4990622;28;20026;-61
2021/10/16 13:30:10;;;;;;;16.02;9.60;;;;;;;;;;4990762;28;20323;-64
2021/10/16 13:32:37;;;;;;;13.05;7.85;;;;;;;;;;4990703;28;20026;-63
2021/10/16 13:35:03;;;;;;;13.88;7.80;;;;;;;;;;4990664;28;20486;-63
2021/10/16 13:37:30;;;;;;;15.98;7.80;;;;;;;;;;4990518;28;20058;-63
2021/10/16 13:39:56;;;;;;;13.00;7.38;;;;;;;;;;4990673;28;20675;-63
2021/10/16 13:42:22;;;;;;;11.38;7.93;;;;;;;;;;4990064;28;20515;-62
2021/10/16 13:44:49;;;;;;;13.63;7.40;;;;;;;;;;4990647;28;20816;-61
2021/10/16 13:47:15;;;;;;;12.98;7.03;;;;;;;;;;4990394;28;20091;-62
2021/10/16 13:49:41;;;;;;;14.63;7.60;;;;;;;;;;4990305;28;20034;-61
2021/10/16 13:52:07;;;;;;;15.00;7.72;;;;;;;;;;4990493;28;20370;-61
2021/10/16 13:54:34;;;;;;;12.05;7.78;;;;;;;;;;4989090;28;20033;-61
2021/10/16 13:57:00;;;;;;;15.02;7.68;;;;;;;;;;4993048;28;20040;-58
2021/10/16 13:59:26;;;;;;;14.27;8.18;;;;;;;;;;4992558;28;20114;-62
2021/10/16 14:01:52;;;;;;;13.00;8.43;;;;;;;;;;4992680;28;20073;-62
2021/10/16 14:04:18;;;;;;;11.98;7.05;;;;;;;;;;4992637;28;20041;-60
2021/10/16 14:06:44;;;;;;;13.32;8.25;;;;;;;;;;4992648;28;20018;-60
2021/10/16 14:09:10;;;;;;;13.80;8.95;;;;;;;;;;4992174;28;20054;-61
2021/10/16 14:11:36;;;;;;;15.75;8.98;;;;;;;;;;4992047;28;20038;-62
2021/10/16 14:14:02;;;;;;;14.85;8.65;;;;;;;;;;4993281;28;20058;-62
2021/10/16 14:16:28;;;;;;;16.13;8.75;;;;;;;;;;4994194;28;20029;-64
2021/10/16 14:18:54;;;;;;;13.80;8.88;;;;;;;;;;4993581;28;20058;-64
2021/10/16 14:21:23;;;;;;;14.35;8.52;;;;;;;;;;4993939;28;20081;-64
2021/10/16 14:23:49;;;;;;;14.07;8.77;;;;;;;;;;4993797;28;20057;-62
2021/10/16 14:26:16;;;;;;;14.35;8.65;;;;;;;;;;4993799;28;20060;-63
2021/10/16 14:28:42;;;;;;;17.63;9.68;;;;;;;;;;4993648;28;20141;-63
2021/10/16 14:31:08;;;;;;;16.60;9.50;;;;;;;;;;4993424;28;20026;-63
2021/10/16 14:33:36;;;;;;;16.58;9.20;;;;;;;;;;4993728;28;20023;-64
2021/10/16 14:36:03;;;;;;;16.13;9.80;;;;;;;;;;4993656;28;20018;-64
2021/10/16 14:38:29;;;;;;;17.15;10.13;;;;;;;;;;4992331;28;20026;-61
2021/10/16 14:40:55;;;;;;;17.45;10.85;;;;;;;;;;4992393;28;20035;-62
2021/10/16 14:43:21;;;;;;;33.53;16.75;;;;;;;;;;4991737;28;20039;-64
2021/10/16 14:45:47;;;;;;;29.23;15.52;;;;;;;;;;4991901;28;20022;-63
2021/10/16 14:48:13;;;;;;;22.92;13.18;;;;;;;;;;4992231;28;20101;-63
2021/10/16 14:50:40;;;;;;;18.92;11.68;;;;;;;;;;4991645;28;20023;-62
2021/10/16 14:53:06;;;;;;;21.48;11.98;;;;;;;;;;4992059;28;20060;-64
2021/10/16 14:55:32;;;;;;;21.75;11.93;;;;;;;;;;4991978;28;20023;-63
2021/10/16 14:57:58;;;;;;;26.13;14.02;;;;;;;;;;4989229;28;20027;-63
2021/10/16 15:00:25;;;;;;;44.17;20.02;;;;;;;;;;4991696;28;20014;-62
2021/10/16 15:02:51;;;;;;;27.33;14.07;;;;;;;;;;4991369;28;20490;-62
2021/10/16 15:05:17;;;;;;;25.17;12.18;;;;;;;;;;4991497;28;20354;-62
2021/10/16 15:07:43;;;;;;;21.65;12.68;;;;;;;;;;4991148;28;20053;-62
2021/10/16 15:10:10;;;;;;;23.83;12.95;;;;;;;;;;4992498;28;20054;-62
2021/10/16 15:12:36;;;;;;;26.05;13.30;;;;;;;;;;4992792;28;20117;-62
2021/10/16 15:15:04;;;;;;;27.42;14.80;;;;;;;;;;4993236;28;20031;-62
2021/10/16 15:17:30;;;;;;;18.67;11.38;;;;;;;;;;4992690;28;20070;-62
2021/10/16 15:19:58;;;;;;;20.52;11.85;;;;;;;;;;4992940;28;20030;-62
2021/10/16 15:22:25;;;;;;;22.75;13.05;;;;;;;;;;4992665;28;20113;-63
2021/10/16 15:24:51;;;;;;;21.52;13.75;;;;;;;;;;4992762;28;20026;-63
2021/10/16 15:27:17;;;;;;;25.50;14.38;;;;;;;;;;4991573;28;20041;-62
2021/10/16 15:29:43;;;;;;;23.67;14.10;;;;;;;;;;4992848;28;20026;-64
2021/10/16 15:32:09;;;;;;;24.50;13.93;;;;;;;;;;4992331;28;20026;-63
2021/10/16 15:34:35;;;;;;;26.85;14.68;;;;;;;;;;4992532;28;20065;-63
2021/10/16 15:37:01;;;;;;;20.77;12.40;;;;;;;;;;4992295;28;20474;-63
2021/10/16 15:39:28;;;;;;;20.95;13.07;;;;;;;;;;4992159;28;20030;-62
2021/10/16 15:41:54;;;;;;;22.77;12.38;;;;;;;;;;4992156;28;20081;-62
2021/10/16 15:44:20;;;;;;;22.85;12.60;;;;;;;;;;4974804;28;20557;-62
2021/10/16 15:46:47;;;;;;;22.63;12.00;;;;;;;;;;4991933;28;20394;-63
2021/10/16 15:49:13;;;;;;;22.95;12.93;;;;;;;;;;4992122;28;20030;-63
2021/10/16 15:51:39;;;;;;;23.27;13.38;;;;;;;;;;4992086;28;20033;-62
2021/10/16 15:54:05;;;;;;;23.20;13.25;;;;;;;;;;4992128;28;20112;-63
2021/10/16 15:56:32;;;;;;;21.42;13.70;;;;;;;;;;4992075;28;20034;-63
2021/10/16 15:58:58;;;;;;;22.70;12.52;;;;;;;;;;4992061;28;20030;-63
2021/10/16 16:01:24;;;;;;;22.30;13.40;;;;;;;;;;4992290;28;20033;-64
2021/10/16 16:03:50;;;;;;;22.02;13.65;;;;;;;;;;4991903;28;20042;-64
2021/10/16 16:06:16;;;;;;;22.92;13.60;;;;;;;;;;4992092;28;20200;-63
2021/10/16 16:08:42;;;;;;;21.05;13.70;;;;;;;;;;4991391;28;20515;-62
2021/10/16 16:11:08;;;;;;;24.85;14.50;;;;;;;;;;4991350;28;20118;-64
2021/10/16 16:13:35;;;;;;;25.05;14.80;;;;;;;;;;4991112;28;20044;-63
2021/10/16 16:16:01;;;;;;;23.13;14.63;;;;;;;;;;4991918;28;20085;-64
2021/10/16 16:18:27;;;;;;;26.08;15.63;;;;;;;;;;4991366;28;20034;-63
2021/10/16 16:20:53;;;;;;;28.55;17.42;;;;;;;;;;4991467;28;20374;-60
2021/10/16 16:23:19;;;;;;;28.23;18.25;;;;;;;;;;4982410;28;20037;-59
2021/10/16 16:25:45;;;;;;;27.10;17.38;;;;;;;;;;5011098;28;20036;-61
2021/10/16 16:28:11;;;;;;;29.58;18.17;;;;;;;;;;4994844;28;20755;-61
2021/10/16 16:30:41;;;;;;;31.95;18.20;;;;;;;;;;4972429;28;20077;-61
2021/10/16 16:33:07;;;;;;;27.88;17.08;;;;;;;;;;4989973;28;20541;-61
2021/10/16 16:35:33;;;;;;;31.27;17.70;;;;;;;;;;4990589;28;20097;-62
2021/10/16 16:37:59;;;;;;;29.98;16.75;;;;;;;;;;4990220;28;20509;-62
2021/10/16 16:40:25;;;;;;;31.65;17.77;;;;;;;;;;4989850;28;20030;-62
2021/10/16 16:42:51;;;;;;;27.45;18.00;;;;;;;;;;4987450;28;20081;-62
2021/10/16 16:45:18;;;;;;;29.80;16.98;;;;;;;;;;4991596;28;20027;-62
2021/10/16 16:47:44;;;;;;;24.08;16.10;;;;;;;;;;4990878;28;20030;-61
2021/10/16 16:50:12;;;;;;;26.95;17.20;;;;;;;;;;4990246;28;20030;-61
2021/10/16 16:52:38;;;;;;;30.27;18.27;;;;;;;;;;4989036;28;20026;-62
2021/10/16 16:55:06;;;;;;;32.42;18.70;;;;;;;;;;4989249;28;20030;-63
2021/10/16 16:57:32;;;;;;;35.33;20.85;;;;;;;;;;4990649;28;20422;-62
2021/10/16 16:59:58;;;;;;;30.77;19.85;;;;;;;;;;4991078;28;20030;-63
2021/10/16 17:02:24;;;;;;;31.95;19.05;;;;;;;;;;4989685;28;20038;-63
2021/10/16 17:04:50;;;;;;;31.85;20.45;;;;;;;;;;4990043;28;20090;-62
2021/10/16 17:07:17;;;;;;;33.17;20.35;;;;;;;;;;4990081;28;20037;-63
2021/10/16 17:09:43;;;;;;;34.03;20.10;;;;;;;;;;4988986;28;20415;-62
2021/10/16 17:12:09;;;;;;;33.25;19.10;;;;;;;;;;4989388;28;20450;-61
2021/10/16 17:14:35;;;;;;;33.42;20.35;;;;;;;;;;4989289;28;20521;-60
2021/10/16 17:17:01;;;;;;;32.55;19.55;;;;;;;;;;4988783;28;20034;-61
2021/10/16 17:19:27;;;;;;;34.45;20.38;;;;;;;;;;4989903;28;20101;-61
2021/10/16 17:21:53;;;;;;;38.67;20.75;;;;;;;;;;4989487;28;20022;-61
2021/10/16 17:24:19;;;;;;;36.25;20.08;;;;;;;;;;4989446;28;20058;-63
2021/10/16 17:26:45;;;;;;;38.17;20.92;;;;;;;;;;4989016;28;20022;-64
2021/10/16 17:29:12;;;;;;;32.33;21.27;;;;;;;;;;4989995;28;20454;-64
2021/10/16 17:31:39;;;;;;;39.58;22.92;;;;;;;;;;4992907;28;20077;-63
2021/10/16 17:34:06;;;;;;;43.20;24.30;;;;;;;;;;4993797;28;20077;-62
2021/10/16 17:36:33;;;;;;;41.00;24.92;;;;;;;;;;4990362;28;20049;-62
2021/10/16 17:38:59;;;;;;;43.20;25.45;;;;;;;;;;4992947;28;20113;-62
2021/10/16 17:41:26;;;;;;;46.28;25.63;;;;;;;;;;4993234;28;20525;-63
2021/10/16 17:43:52;;;;;;;44.45;25.60;;;;;;;;;;4992812;28;20048;-63
2021/10/16 17:46:19;;;;;;;43.38;25.98;;;;;;;;;;4975440;28;20113;-64
2021/10/16 17:48:45;;;;;;;41.47;23.90;;;;;;;;;;4992859;28;20085;-63
2021/10/16 17:51:11;;;;;;;41.45;24.77;;;;;;;;;;4991767;28;20125;-63
2021/10/16 17:53:37;;;;;;;38.85;23.17;;;;;;;;;;4992890;28;20022;-62
2021/10/16 17:56:04;;;;;;;45.95;23.45;;;;;;;;;;4993572;28;20033;-60
2021/10/16 17:58:30;;;;;;;42.40;23.63;;;;;;;;;;4991041;28;20110;-62
2021/10/16 18:00:56;;;;;;;39.42;24.00;;;;;;;;;;4992535;28;20513;-62
2021/10/16 18:03:22;;;;;;;48.15;27.15;;;;;;;;;;4992968;28;20038;-62
2021/10/16 18:05:48;;;;;;;41.85;25.63;;;;;;;;;;4993316;28;20374;-61
2021/10/16 18:08:15;;;;;;;44.40;24.42;;;;;;;;;;4992720;28;20100;-61
2021/10/16 18:10:41;;;;;;;37.63;21.60;;;;;;;;;;4992745;28;20116;-61
2021/10/16 18:13:08;;;;;;;43.20;24.13;;;;;;;;;;4975515;28;20039;-61
2021/10/16 18:15:34;;;;;;;44.83;25.90;;;;;;;;;;4992794;28;20023;-63
2021/10/16 18:18:00;;;;;;;42.97;23.33;;;;;;;;;;4992206;28;20037;-61
2021/10/16 18:20:26;;;;;;;35.67;20.42;;;;;;;;;;4992122;28;20091;-63
2021/10/16 18:22:52;;;;;;;34.05;21.05;;;;;;;;;;4992797;28;20473;-61
2021/10/16 18:25:19;;;;;;;37.45;22.35;;;;;;;;;;4993259;28;20029;-62
2021/10/16 18:27:45;;;;;;;40.35;24.70;;;;;;;;;;4992448;28;20022;-63
2021/10/16 18:30:11;;;;;;;41.17;23.85;;;;;;;;;;4991250;28;20033;-62
2021/10/16 18:32:37;;;;;;;39.00;23.30;;;;;;;;;;4991798;28;20481;-59
2021/10/16 18:35:04;;;;;;;40.33;24.13;;;;;;;;;;4991963;28;20030;-64
2021/10/16 18:37:31;;;;;;;38.42;22.98;;;;;;;;;;4991518;28;20097;-62
2021/10/16 18:39:57;;;;;;;40.35;22.48;;;;;;;;;;4992124;28;20045;-62
2021/10/16 18:42:23;;;;;;;35.45;21.80;;;;;;;;;;4991687;28;20066;-63
2021/10/16 18:44:51;;;;;;;37.33;22.00;;;;;;;;;;4991418;28;20057;-61
2021/10/16 18:47:17;;;;;;;33.80;20.67;;;;;;;;;;4972865;28;20030;-61
2021/10/16 18:49:43;;;;;;;35.08;21.27;;;;;;;;;;4988448;28;20033;-62
2021/10/16 18:52:09;;;;;;;37.63;22.17;;;;;;;;;;4991614;28;20047;-61
2021/10/16 18:54:35;;;;;;;41.63;22.40;;;;;;;;;;4974804;28;20397;-63
2021/10/16 18:57:01;;;;;;;36.05;20.90;;;;;;;;;;4993005;28;20041;-62
2021/10/16 18:59:27;;;;;;;32.20;20.63;;;;;;;;;;4993293;28;20023;-61
2021/10/16 19:01:53;;;;;;;34.15;19.80;;;;;;;;;;4992831;28;20022;-62
2021/10/16 19:04:19;;;;;;;35.05;20.73;;;;;;;;;;4993194;28;20063;-62
2021/10/16 19:06:45;;;;;;;36.63;20.45;;;;;;;;;;4993069;28;20033;-62
2021/10/16 19:09:12;;;;;;;38.22;21.45;;;;;;;;;;4992552;28;20053;-64
2021/10/16 19:11:38;;;;;;;36.45;20.67;;;;;;;;;;4993023;28;20022;-61
2021/10/16 19:14:04;;;;;;;33.42;20.92;;;;;;;;;;4992363;28;20109;-63
2021/10/16 19:16:30;;;;;;;38.33;22.02;;;;;;;;;;4992157;28;20034;-64
2021/10/16 19:18:56;;;;;;;39.78;23.38;;;;;;;;;;4992616;28;20030;-62
2021/10/16 19:21:23;;;;;;;39.00;22.77;;;;;;;;;;4992895;28;20030;-62
2021/10/16 19:23:49;;;;;;;37.25;23.50;;;;;;;;;;4992568;28;20372;-63
2021/10/16 19:26:15;;;;;;;38.67;22.45;;;;;;;;;;4992522;28;20030;-64
2021/10/16 19:28:41;;;;;;;48.05;27.67;;;;;;;;;;4992639;28;20394;-63
2021/10/16 19:31:07;;;;;;;47.55;26.45;;;;;;;;;;4992154;28;20019;-62